createdAt,value
2023-05-08T00:00:59.508Z,0.00
2023-05-08T00:01:59.409Z,0.00
2023-05-08T00:02:59.450Z,0.00
2023-05-08T00:03:59.623Z,0.00
2023-05-08T00:04:59.520Z,0.00
2023-05-08T00:05:59.334Z,0.00
2023-05-08T00:06:59.320Z,0.00
2023-05-08T00:07:59.291Z,0.00
2023-05-08T00:08:59.267Z,0.00
2023-05-08T00:09:59.288Z,0.00
2023-05-08T00:10:59.252Z,0.00
2023-05-08T00:11:59.254Z,0.00
2023-05-08T00:12:59.310Z,0.00
2023-05-08T00:13:59.287Z,0.00
2023-05-08T00:14:59.193Z,0.00
2023-05-08T00:15:59.216Z,0.00
2023-05-08T00:16:59.226Z,0.00
2023-05-08T00:17:59.239Z,0.00
2023-05-08T00:18:59.207Z,0.00
2023-05-08T00:19:59.160Z,0.00
2023-05-08T00:20:59.129Z,0.00
2023-05-08T00:21:59.115Z,0.00
2023-05-08T00:22:59.101Z,0.00
2023-05-08T00:23:59.107Z,0.00
2023-05-08T00:24:59.134Z,0.00
2023-05-08T00:25:59.083Z,0.00
2023-05-08T00:26:59.068Z,0.00
2023-05-08T00:27:59.069Z,0.00
2023-05-08T00:28:59.058Z,0.00
2023-05-08T00:29:59.046Z,0.00
2023-05-08T00:30:59.019Z,0.00
2023-05-08T00:31:59.070Z,0.00
2023-05-08T00:32:59.075Z,0.00
2023-05-08T00:33:58.997Z,0.00
2023-05-08T00:34:58.965Z,0.00
2023-05-08T00:35:58.947Z,0.00
2023-05-08T00:36:58.946Z,0.00
2023-05-08T00:37:59.005Z,0.00
2023-05-08T00:38:58.923Z,0.00
2023-05-08T00:39:58.895Z,0.00
2023-05-08T00:40:58.883Z,0.00
2023-05-08T00:41:58.943Z,0.00
2023-05-08T00:42:58.869Z,0.00
2023-05-08T00:43:58.850Z,0.00
2023-05-08T00:44:58.857Z,0.00
2023-05-08T00:46:01.725Z,0.00
2023-05-08T00:46:58.841Z,0.00
2023-05-08T00:47:58.850Z,0.00
2023-05-08T00:48:58.807Z,0.00
2023-05-08T00:49:58.785Z,0.00
2023-05-08T00:50:58.768Z,0.00
2023-05-08T00:51:58.789Z,0.00
2023-05-08T00:52:58.761Z,0.00
2023-05-08T00:53:58.730Z,0.00
2023-05-08T00:54:58.735Z,0.00
2023-05-08T00:55:58.765Z,0.00
2023-05-08T00:56:58.716Z,0.00
2023-05-08T00:57:58.682Z,0.00
2023-05-08T00:58:58.692Z,0.00
2023-05-08T00:59:58.775Z,0.00
2023-05-08T01:00:58.692Z,0.00
2023-05-08T01:01:58.711Z,0.00
2023-05-08T01:02:58.721Z,0.00
2023-05-08T01:03:58.667Z,0.00
2023-05-08T01:04:58.635Z,0.00
2023-05-08T01:05:58.657Z,0.00
2023-05-08T01:06:58.616Z,0.00
2023-05-08T01:07:58.602Z,0.00
2023-05-08T01:08:58.570Z,0.00
2023-05-08T01:09:58.572Z,0.00
2023-05-08T01:10:58.588Z,0.00
2023-05-08T01:11:58.535Z,0.00
2023-05-08T01:12:58.560Z,0.00
2023-05-08T01:13:58.505Z,0.00
2023-05-08T01:14:58.505Z,0.00
2023-05-08T01:15:58.516Z,0.00
2023-05-08T01:16:58.519Z,0.00
2023-05-08T01:17:58.550Z,0.00
2023-05-08T01:18:58.452Z,0.00
2023-05-08T01:19:58.466Z,0.00
2023-05-08T01:20:58.419Z,0.00
2023-05-08T01:21:58.427Z,0.00
2023-05-08T01:22:58.705Z,0.00
2023-05-08T01:23:58.421Z,0.00
2023-05-08T01:24:58.406Z,0.00
2023-05-08T01:25:58.375Z,0.00
2023-05-08T01:26:58.374Z,0.00
2023-05-08T01:27:58.356Z,0.00
2023-05-08T01:28:58.349Z,0.00
2023-05-08T01:29:58.330Z,0.00
2023-05-08T01:30:58.305Z,0.00
2023-05-08T01:31:58.341Z,0.00
2023-05-08T01:32:58.464Z,0.00
2023-05-08T01:33:58.329Z,0.00
2023-05-08T01:34:58.274Z,0.00
2023-05-08T01:35:58.242Z,0.00
2023-05-08T01:36:58.290Z,0.00
2023-05-08T01:37:58.218Z,0.00
2023-05-08T01:38:58.219Z,0.00
2023-05-08T01:39:58.212Z,0.00
2023-05-08T01:40:58.208Z,0.00
2023-05-08T01:41:58.196Z,0.00
2023-05-08T01:42:58.200Z,0.00
2023-05-08T01:43:58.159Z,0.00
2023-05-08T01:44:58.137Z,0.00
2023-05-08T01:45:58.152Z,0.00
2023-05-08T01:46:58.162Z,0.00
2023-05-08T01:47:58.147Z,0.00
2023-05-08T01:48:58.127Z,0.00
2023-05-08T01:49:58.117Z,0.00
2023-05-08T01:50:58.088Z,0.00
2023-05-08T01:51:58.082Z,0.00
2023-05-08T01:52:58.066Z,0.00
2023-05-08T01:53:58.067Z,0.00
2023-05-08T01:56:29.621Z,0.00
2023-05-08T01:57:29.620Z,0.00
2023-05-08T01:58:29.616Z,0.00
2023-05-08T01:59:29.652Z,0.00
2023-05-08T02:00:29.639Z,0.00
2023-05-08T02:01:29.610Z,0.00
2023-05-08T02:02:29.685Z,0.00
2023-05-08T02:03:29.656Z,0.00
2023-05-08T02:04:30.810Z,0.00
2023-05-08T02:05:29.552Z,0.00
2023-05-08T02:06:29.562Z,0.00
2023-05-08T02:07:29.512Z,0.00
2023-05-08T02:08:29.492Z,0.00
2023-05-08T02:09:29.505Z,0.00
2023-05-08T02:10:29.481Z,0.00
2023-05-08T02:11:29.476Z,0.00
2023-05-08T02:12:29.474Z,0.00
2023-05-08T02:13:29.460Z,0.00
2023-05-08T02:14:29.416Z,0.00
2023-05-08T02:15:29.483Z,0.00
2023-05-08T02:16:29.436Z,0.00
2023-05-08T02:17:29.427Z,0.00
2023-05-08T02:18:29.398Z,0.00
2023-05-08T02:19:29.360Z,0.00
2023-05-08T02:20:29.374Z,0.00
2023-05-08T02:21:29.346Z,0.00
2023-05-08T02:22:29.318Z,0.00
2023-05-08T02:23:29.352Z,0.00
2023-05-08T02:24:29.318Z,0.00
2023-05-08T02:25:29.347Z,0.00
2023-05-08T02:26:29.314Z,0.00
2023-05-08T02:27:29.316Z,0.00
2023-05-08T02:28:29.290Z,0.00
2023-05-08T02:29:29.262Z,0.00
2023-05-08T02:30:29.268Z,0.00
2023-05-08T02:31:29.281Z,0.00
2023-05-08T02:32:29.266Z,0.00
2023-05-08T02:33:29.214Z,0.00
2023-05-08T02:34:29.223Z,0.00
2023-05-08T02:35:29.204Z,0.00
2023-05-08T02:36:29.183Z,0.00
2023-05-08T02:37:29.176Z,0.00
2023-05-08T02:38:29.173Z,0.00
2023-05-08T02:39:29.154Z,0.00
2023-05-08T02:40:29.151Z,0.00
2023-05-08T02:41:29.117Z,0.00
2023-05-08T02:42:29.155Z,0.00
2023-05-08T02:43:29.092Z,0.00
2023-05-08T02:44:29.144Z,0.00
2023-05-08T02:45:29.044Z,0.00
2023-05-08T02:46:29.104Z,0.00
2023-05-08T02:47:29.054Z,0.00
2023-05-08T02:48:29.042Z,0.00
2023-05-08T02:49:29.047Z,0.00
2023-05-08T02:50:29.020Z,0.00
2023-05-08T02:51:28.979Z,0.00
2023-05-08T02:52:28.984Z,0.00
2023-05-08T02:53:29.000Z,0.00
2023-05-08T02:54:28.978Z,0.00
2023-05-08T02:55:28.926Z,0.00
2023-05-08T02:56:28.921Z,0.00
2023-05-08T02:57:28.936Z,0.00
2023-05-08T02:58:28.919Z,0.00
2023-05-08T02:59:28.906Z,0.00
2023-05-08T03:00:28.866Z,0.00
2023-05-08T03:01:28.977Z,0.00
2023-05-08T03:02:28.957Z,0.00
2023-05-08T03:03:28.955Z,0.00
2023-05-08T03:04:28.824Z,0.00
2023-05-08T03:05:28.835Z,0.00
2023-05-08T03:06:28.843Z,0.00
2023-05-08T03:07:28.814Z,0.00
2023-05-08T03:08:28.783Z,0.00
2023-05-08T03:09:28.763Z,0.00
2023-05-08T03:10:28.762Z,0.00
2023-05-08T03:11:28.778Z,0.00
2023-05-08T03:12:28.735Z,0.00
2023-05-08T03:13:28.779Z,0.00
2023-05-08T03:14:28.717Z,0.00
2023-05-08T03:15:28.704Z,0.00
2023-05-08T03:16:28.714Z,0.00
2023-05-08T03:17:28.690Z,0.00
2023-05-08T03:18:28.688Z,0.00
2023-05-08T03:19:28.687Z,0.00
2023-05-08T03:20:28.690Z,0.00
2023-05-08T03:21:28.645Z,0.00
2023-05-08T03:22:28.653Z,0.00
2023-05-08T03:23:28.631Z,0.00
2023-05-08T03:24:28.628Z,0.00
2023-05-08T03:25:28.605Z,0.00
2023-05-08T03:26:28.568Z,0.00
2023-05-08T03:27:28.607Z,0.00
2023-05-08T03:28:28.596Z,0.00
2023-05-08T03:29:28.534Z,0.00
2023-05-08T03:30:28.528Z,0.00
2023-05-08T03:31:28.600Z,0.00
2023-05-08T03:32:28.552Z,0.00
2023-05-08T03:33:28.489Z,0.00
2023-05-08T03:34:36.509Z,0.00
2023-05-08T03:35:28.461Z,0.00
2023-05-08T03:36:28.473Z,0.00
2023-05-08T03:37:28.504Z,0.00
2023-05-08T03:38:28.454Z,0.00
2023-05-08T03:39:28.430Z,0.00
2023-05-08T03:40:28.409Z,0.00
2023-05-08T03:41:28.708Z,0.00
2023-05-08T03:42:28.402Z,0.00
2023-05-08T03:43:28.364Z,0.00
2023-05-08T03:44:28.381Z,0.00
2023-05-08T03:45:28.347Z,0.00
2023-05-08T03:46:28.344Z,0.00
2023-05-08T03:47:28.375Z,0.00
2023-05-08T03:48:28.314Z,0.00
2023-05-08T03:49:28.295Z,0.00
2023-05-08T03:50:28.327Z,0.00
2023-05-08T03:51:28.302Z,0.00
2023-05-08T03:52:28.286Z,0.00
2023-05-08T03:53:28.270Z,0.00
2023-05-08T03:54:28.246Z,0.00
2023-05-08T03:55:28.250Z,0.00
2023-05-08T03:56:28.242Z,0.00
2023-05-08T03:57:29.906Z,0.00
2023-05-08T03:58:28.225Z,0.00
2023-05-08T03:59:28.196Z,0.00
2023-05-08T04:00:28.197Z,0.00
2023-05-08T04:01:28.209Z,0.00
2023-05-08T04:02:28.281Z,0.00
2023-05-08T04:03:28.262Z,0.00
2023-05-08T04:04:28.132Z,0.00
2023-05-08T04:05:28.146Z,0.00
2023-05-08T04:06:30.742Z,0.00
2023-05-08T04:07:28.106Z,5.62
2023-05-08T04:08:28.094Z,5.62
2023-05-08T04:09:28.067Z,5.62
2023-05-08T04:10:28.095Z,5.62
2023-05-08T04:11:28.080Z,5.62
2023-05-08T04:12:28.059Z,5.62
2023-05-08T04:13:28.096Z,5.62
2023-05-08T04:14:28.974Z,5.62
2023-05-08T04:15:28.010Z,5.62
2023-05-08T04:16:28.060Z,5.62
2023-05-08T04:17:28.033Z,5.62
2023-05-08T04:18:27.968Z,5.62
2023-05-08T04:19:27.960Z,5.62
2023-05-08T04:20:27.967Z,5.62
2023-05-08T04:21:27.940Z,5.62
2023-05-08T04:22:27.947Z,5.62
2023-05-08T04:23:27.921Z,11.25
2023-05-08T04:24:27.911Z,11.25
2023-05-08T04:25:27.877Z,11.25
2023-05-08T04:26:29.684Z,11.25
2023-05-08T04:27:27.903Z,11.25
2023-05-08T04:28:27.873Z,11.25
2023-05-08T04:29:27.828Z,11.25
2023-05-08T04:30:27.893Z,11.25
2023-05-08T04:31:27.937Z,11.25
2023-05-08T04:32:27.842Z,11.25
2023-05-08T04:33:27.870Z,16.88
2023-05-08T04:34:27.823Z,16.88
2023-05-08T04:35:27.792Z,16.88
2023-05-08T04:36:27.779Z,16.88
2023-05-08T04:37:27.753Z,16.88
2023-05-08T04:38:27.749Z,16.88
2023-05-08T04:39:27.731Z,16.88
2023-05-08T04:40:27.742Z,16.88
2023-05-08T04:41:27.718Z,16.88
2023-05-08T04:42:27.708Z,16.88
2023-05-08T04:43:27.693Z,16.88
2023-05-08T04:44:27.648Z,22.50
2023-05-08T04:45:27.693Z,16.88
2023-05-08T04:46:27.679Z,16.88
2023-05-08T04:47:27.723Z,22.50
2023-05-08T04:48:27.617Z,28.12
2023-05-08T04:49:27.620Z,28.12
2023-05-08T04:50:27.583Z,28.12
2023-05-08T04:51:27.632Z,28.12
2023-05-08T04:52:27.649Z,28.12
2023-05-08T04:53:27.575Z,28.12
2023-05-08T04:54:27.585Z,28.12
2023-05-08T04:55:27.578Z,28.12
2023-05-08T04:56:27.536Z,28.12
2023-05-08T04:57:27.543Z,28.12
2023-05-08T04:58:27.547Z,28.12
2023-05-08T04:59:27.512Z,33.75
2023-05-08T05:00:27.504Z,28.12
2023-05-08T05:01:27.545Z,28.12
2023-05-08T05:02:30.397Z,33.75
2023-05-08T05:03:27.496Z,33.75
2023-05-08T05:04:27.450Z,28.12
2023-05-08T05:05:27.432Z,28.12
2023-05-08T05:06:27.406Z,28.12
2023-05-08T05:07:27.394Z,28.12
2023-05-08T05:08:27.440Z,28.12
2023-05-08T05:09:27.377Z,28.12
2023-05-08T05:10:27.357Z,28.12
2023-05-08T05:11:27.390Z,28.12
2023-05-08T05:12:27.353Z,22.50
2023-05-08T05:13:27.347Z,22.50
2023-05-08T05:14:27.311Z,22.50
2023-05-08T05:15:27.352Z,22.50
2023-05-08T05:16:27.452Z,22.50
2023-05-08T05:17:27.293Z,22.50
2023-05-08T05:18:27.269Z,22.50
2023-05-08T05:19:27.534Z,22.50
2023-05-08T05:20:29.236Z,22.50
2023-05-08T05:21:27.261Z,28.12
2023-05-08T05:22:27.215Z,28.12
2023-05-08T05:23:27.210Z,28.12
2023-05-08T05:24:27.234Z,28.12
2023-05-08T05:25:27.177Z,28.12
2023-05-08T05:26:27.176Z,28.12
2023-05-08T05:27:27.180Z,33.75
2023-05-08T05:28:27.211Z,33.75
2023-05-08T05:29:27.135Z,39.38
2023-05-08T05:30:27.267Z,45.00
2023-05-08T05:31:27.172Z,50.62
2023-05-08T05:32:27.185Z,56.25
2023-05-08T05:33:27.078Z,61.88
2023-05-08T05:34:27.082Z,67.50
2023-05-08T05:35:27.066Z,73.12
2023-05-08T05:36:27.067Z,73.12
2023-05-08T05:37:27.030Z,78.75
2023-05-08T05:38:27.050Z,84.38
2023-05-08T05:39:27.079Z,90.00
2023-05-08T05:40:28.011Z,90.00
2023-05-08T05:41:26.997Z,90.00
2023-05-08T05:42:26.987Z,95.62
2023-05-08T05:43:27.008Z,95.62
2023-05-08T05:44:27.252Z,101.25
2023-05-08T05:45:26.953Z,101.25
2023-05-08T05:46:26.989Z,106.88
2023-05-08T05:47:26.978Z,112.50
2023-05-08T05:48:26.927Z,112.50
2023-05-08T05:49:26.889Z,118.12
2023-05-08T05:50:26.919Z,123.75
2023-05-08T05:51:28.725Z,129.38
2023-05-08T05:52:26.870Z,135.00
2023-05-08T05:53:26.876Z,140.62
2023-05-08T05:54:26.833Z,151.88
2023-05-08T05:55:26.856Z,157.50
2023-05-08T05:56:26.826Z,163.12
2023-05-08T05:57:26.812Z,174.38
2023-05-08T05:58:26.815Z,185.62
2023-05-08T05:59:26.815Z,191.25
2023-05-08T06:00:26.820Z,196.88
2023-05-08T06:01:27.799Z,208.12
2023-05-08T06:02:26.905Z,213.75
2023-05-08T06:03:27.014Z,213.75
2023-05-08T06:04:26.859Z,219.38
2023-05-08T06:05:26.789Z,225.00
2023-05-08T06:06:26.694Z,225.00
2023-05-08T06:07:26.733Z,225.00
2023-05-08T06:08:26.680Z,225.00
2023-05-08T06:09:26.677Z,225.00
2023-05-08T06:10:29.455Z,225.00
2023-05-08T06:11:27.503Z,230.62
2023-05-08T06:12:26.669Z,236.25
2023-05-08T06:13:26.723Z,241.88
2023-05-08T06:14:26.646Z,253.12
2023-05-08T06:15:26.597Z,270.00
2023-05-08T06:16:26.648Z,286.88
2023-05-08T06:17:26.588Z,298.12
2023-05-08T06:18:26.569Z,303.75
2023-05-08T06:19:26.586Z,303.75
2023-05-08T06:20:26.761Z,298.12
2023-05-08T06:21:28.425Z,298.12
2023-05-08T06:22:26.517Z,292.50
2023-05-08T06:23:26.534Z,286.88
2023-05-08T06:24:26.500Z,286.88
2023-05-08T06:25:26.505Z,281.25
2023-05-08T06:26:26.481Z,275.62
2023-05-08T06:27:26.455Z,275.62
2023-05-08T06:28:26.473Z,270.00
2023-05-08T06:29:26.544Z,264.38
2023-05-08T06:30:26.462Z,258.75
2023-05-08T06:31:28.138Z,253.12
2023-05-08T06:32:26.703Z,247.50
2023-05-08T06:33:27.103Z,236.25
2023-05-08T06:34:26.368Z,230.62
2023-05-08T06:35:26.378Z,225.00
2023-05-08T06:36:26.368Z,225.00
2023-05-08T06:37:26.343Z,225.00
2023-05-08T06:38:26.376Z,230.62
2023-05-08T06:39:26.329Z,236.25
2023-05-08T06:40:31.301Z,236.25
2023-05-08T06:41:26.320Z,236.25
2023-05-08T06:42:26.321Z,225.00
2023-05-08T06:43:26.281Z,219.38
2023-05-08T06:44:26.275Z,208.12
2023-05-08T06:45:26.266Z,196.88
2023-05-08T06:46:26.293Z,191.25
2023-05-08T06:47:26.269Z,185.62
2023-05-08T06:48:26.233Z,180.00
2023-05-08T06:49:26.203Z,180.00
2023-05-08T06:50:26.216Z,180.00
2023-05-08T06:51:26.884Z,180.00
2023-05-08T06:52:26.185Z,180.00
2023-05-08T06:53:26.171Z,180.00
2023-05-08T06:54:26.223Z,185.62
2023-05-08T06:55:26.150Z,185.62
2023-05-08T06:56:26.135Z,191.25
2023-05-08T06:57:26.114Z,196.88
2023-05-08T06:58:26.149Z,202.50
2023-05-08T06:59:26.088Z,202.50
2023-05-08T07:00:26.152Z,208.12
2023-05-08T07:01:27.876Z,208.12
2023-05-08T07:02:26.091Z,208.12
2023-05-08T07:03:27.248Z,213.75
2023-05-08T07:04:26.066Z,213.75
2023-05-08T07:05:26.072Z,213.75
2023-05-08T07:06:26.020Z,208.12
2023-05-08T07:07:28.776Z,208.12
2023-05-08T07:08:26.048Z,202.50
2023-05-08T07:09:25.982Z,196.88
2023-05-08T07:10:25.972Z,196.88
2023-05-08T07:11:26.042Z,191.25
2023-05-08T07:12:25.993Z,191.25
2023-05-08T07:13:26.007Z,191.25
2023-05-08T07:14:25.987Z,191.25
2023-05-08T07:15:26.919Z,191.25
2023-05-08T07:16:25.934Z,191.25
2023-05-08T07:17:25.921Z,191.25
2023-05-08T07:18:25.904Z,191.25
2023-05-08T07:19:25.919Z,196.88
2023-05-08T07:20:25.912Z,196.88
2023-05-08T07:21:25.841Z,202.50
2023-05-08T07:22:25.904Z,208.12
2023-05-08T07:23:25.817Z,219.38
2023-05-08T07:24:25.812Z,230.62
2023-05-08T07:25:25.796Z,247.50
2023-05-08T07:26:25.829Z,264.38
2023-05-08T07:27:25.779Z,281.25
2023-05-08T07:28:25.792Z,298.12
2023-05-08T07:29:25.774Z,309.38
2023-05-08T07:30:25.741Z,320.62
2023-05-08T07:31:25.740Z,326.25
2023-05-08T07:32:25.798Z,331.88
2023-05-08T07:33:25.718Z,337.50
2023-05-08T07:34:25.712Z,337.50
2023-05-08T07:35:25.689Z,337.50
2023-05-08T07:36:25.692Z,343.12
2023-05-08T07:37:25.662Z,348.75
2023-05-08T07:38:28.464Z,354.38
2023-05-08T07:39:25.706Z,360.00
2023-05-08T07:40:25.624Z,371.25
2023-05-08T07:41:25.802Z,376.88
2023-05-08T07:42:25.622Z,382.50
2023-05-08T07:43:25.603Z,393.75
2023-05-08T07:44:25.612Z,399.38
2023-05-08T07:45:25.582Z,405.00
2023-05-08T07:46:25.600Z,410.62
2023-05-08T07:47:25.580Z,421.88
2023-05-08T07:48:25.535Z,427.50
2023-05-08T07:49:25.566Z,427.50
2023-05-08T07:50:29.398Z,427.50
2023-05-08T07:51:26.251Z,421.88
2023-05-08T07:52:29.217Z,410.62
2023-05-08T07:53:27.165Z,388.12
2023-05-08T07:54:28.471Z,360.00
2023-05-08T07:55:25.472Z,348.75
2023-05-08T07:56:25.481Z,331.88
2023-05-08T07:57:25.461Z,320.62
2023-05-08T07:58:25.457Z,315.00
2023-05-08T07:59:25.513Z,309.38
2023-05-08T08:00:25.418Z,303.75
2023-05-08T08:01:25.402Z,298.12
2023-05-08T08:02:25.441Z,303.75
2023-05-08T08:03:25.421Z,309.38
2023-05-08T08:04:25.431Z,320.62
2023-05-08T08:05:25.377Z,331.88
2023-05-08T08:06:25.615Z,348.75
2023-05-08T08:07:25.341Z,354.38
2023-05-08T08:08:25.312Z,365.62
2023-05-08T08:09:25.416Z,376.88
2023-05-08T08:10:25.293Z,388.12
2023-05-08T08:11:25.289Z,405.00
2023-05-08T08:12:25.269Z,416.25
2023-05-08T08:13:25.307Z,433.12
2023-05-08T08:14:26.996Z,438.75
2023-05-08T08:15:25.249Z,438.75
2023-05-08T08:16:26.034Z,438.75
2023-05-08T08:17:26.906Z,438.75
2023-05-08T08:18:25.210Z,433.12
2023-05-08T08:19:25.213Z,421.88
2023-05-08T08:20:25.171Z,416.25
2023-05-08T08:21:25.180Z,405.00
2023-05-08T08:22:25.301Z,399.38
2023-05-08T08:23:25.232Z,388.12
2023-05-08T08:24:25.143Z,376.88
2023-05-08T08:25:25.133Z,371.25
2023-05-08T08:26:25.113Z,376.88
2023-05-08T08:27:25.125Z,388.12
2023-05-08T08:28:25.137Z,405.00
2023-05-08T08:29:25.100Z,416.25
2023-05-08T08:30:25.090Z,433.12
2023-05-08T08:31:25.146Z,438.75
2023-05-08T08:32:25.084Z,438.75
2023-05-08T08:33:25.052Z,438.75
2023-05-08T08:34:25.031Z,438.75
2023-05-08T08:35:25.062Z,438.75
2023-05-08T08:36:25.006Z,438.75
2023-05-08T08:37:24.996Z,438.75
2023-05-08T08:38:24.978Z,438.75
2023-05-08T08:39:24.972Z,438.75
2023-05-08T08:40:24.959Z,438.75
2023-05-08T08:41:24.932Z,433.12
2023-05-08T08:42:24.984Z,421.88
2023-05-08T08:43:24.911Z,410.62
2023-05-08T08:44:24.919Z,399.38
2023-05-08T08:45:24.897Z,388.12
2023-05-08T08:46:24.938Z,376.88
2023-05-08T08:47:24.910Z,365.62
2023-05-08T08:48:25.817Z,354.38
2023-05-08T08:49:24.876Z,348.75
2023-05-08T08:50:24.847Z,337.50
2023-05-08T08:51:25.775Z,331.88
2023-05-08T08:52:24.826Z,326.25
2023-05-08T08:53:24.804Z,320.62
2023-05-08T08:54:24.780Z,320.62
2023-05-08T08:55:24.829Z,315.00
2023-05-08T08:56:24.761Z,309.38
2023-05-08T08:57:24.764Z,309.38
2023-05-08T08:58:24.743Z,303.75
2023-05-08T08:59:24.737Z,303.75
2023-05-08T09:00:24.748Z,298.12
2023-05-08T09:01:24.877Z,298.12
2023-05-08T09:02:24.779Z,298.12
2023-05-08T09:03:24.742Z,303.75
2023-05-08T09:04:24.864Z,298.12
2023-05-08T09:05:24.677Z,298.12
2023-05-08T09:06:24.671Z,303.75
2023-05-08T09:07:24.668Z,303.75
2023-05-08T09:08:24.627Z,309.38
2023-05-08T09:09:24.624Z,315.00
2023-05-08T09:10:24.615Z,320.62
2023-05-08T09:11:24.644Z,326.25
2023-05-08T09:12:24.591Z,331.88
2023-05-08T09:13:24.634Z,331.88
2023-05-08T09:14:24.554Z,337.50
2023-05-08T09:15:24.572Z,343.12
2023-05-08T09:16:24.578Z,348.75
2023-05-08T09:17:24.611Z,354.38
2023-05-08T09:18:24.507Z,360.00
2023-05-08T09:19:26.340Z,360.00
2023-05-08T09:20:24.493Z,360.00
2023-05-08T09:21:24.486Z,365.62
2023-05-08T09:22:24.472Z,365.62
2023-05-08T09:23:24.470Z,365.62
2023-05-08T09:24:24.510Z,365.62
2023-05-08T09:25:24.517Z,360.00
2023-05-08T09:26:24.403Z,360.00
2023-05-08T09:27:24.414Z,354.38
2023-05-08T09:28:24.430Z,354.38
2023-05-08T09:29:24.576Z,360.00
2023-05-08T09:30:24.374Z,360.00
2023-05-08T09:31:24.426Z,365.62
2023-05-08T09:32:24.384Z,365.62
2023-05-08T09:33:24.360Z,371.25
2023-05-08T09:34:24.350Z,371.25
2023-05-08T09:35:24.306Z,371.25
2023-05-08T09:36:24.314Z,371.25
2023-05-08T09:37:24.281Z,365.62
2023-05-08T09:38:24.292Z,354.38
2023-05-08T09:39:24.277Z,343.12
2023-05-08T09:40:24.256Z,337.50
2023-05-08T09:41:24.236Z,326.25
2023-05-08T09:42:24.222Z,320.62
2023-05-08T09:43:24.218Z,315.00
2023-05-08T09:44:24.229Z,309.38
2023-05-08T09:45:24.188Z,303.75
2023-05-08T09:46:24.322Z,292.50
2023-05-08T09:47:24.335Z,286.88
2023-05-08T09:48:24.225Z,270.00
2023-05-08T09:49:24.141Z,253.12
2023-05-08T09:50:24.119Z,241.88
2023-05-08T09:51:24.129Z,225.00
2023-05-08T09:52:24.140Z,208.12
2023-05-08T09:53:24.099Z,196.88
2023-05-08T09:54:24.078Z,191.25
2023-05-08T09:55:24.063Z,180.00
2023-05-08T09:56:24.074Z,174.38
2023-05-08T09:57:24.068Z,174.38
2023-05-08T09:58:24.054Z,168.75
2023-05-08T09:59:24.016Z,168.75
2023-05-08T10:00:24.042Z,174.38
2023-05-08T10:01:24.129Z,180.00
2023-05-08T10:02:24.017Z,180.00
2023-05-08T10:03:24.274Z,185.62
2023-05-08T10:04:23.970Z,191.25
2023-05-08T10:05:24.030Z,191.25
2023-05-08T10:06:23.948Z,196.88
2023-05-08T10:07:23.953Z,196.88
2023-05-08T10:08:23.930Z,196.88
2023-05-08T10:09:23.979Z,196.88
2023-05-08T10:10:23.905Z,196.88
2023-05-08T10:11:23.929Z,196.88
2023-05-08T10:12:23.937Z,196.88
2023-05-08T10:13:23.916Z,196.88
2023-05-08T10:14:23.863Z,202.50
2023-05-08T10:15:23.844Z,202.50
2023-05-08T10:16:23.892Z,202.50
2023-05-08T10:17:23.872Z,208.12
2023-05-08T10:18:23.808Z,213.75
2023-05-08T10:19:23.828Z,213.75
2023-05-08T10:20:23.841Z,219.38
2023-05-08T10:21:23.807Z,225.00
2023-05-08T10:22:23.802Z,225.00
2023-05-08T10:23:23.763Z,225.00
2023-05-08T10:24:23.764Z,225.00
2023-05-08T10:25:23.757Z,219.38
2023-05-08T10:26:23.740Z,213.75
2023-05-08T10:27:23.712Z,208.12
2023-05-08T10:28:23.704Z,202.50
2023-05-08T10:29:23.704Z,202.50
2023-05-08T10:30:23.710Z,208.12
2023-05-08T10:31:23.696Z,213.75
2023-05-08T10:32:23.703Z,225.00
2023-05-08T10:33:23.645Z,241.88
2023-05-08T10:34:23.644Z,264.38
2023-05-08T10:35:24.781Z,275.62
2023-05-08T10:36:23.628Z,292.50
2023-05-08T10:37:23.618Z,303.75
2023-05-08T10:38:23.691Z,309.38
2023-05-08T10:39:23.594Z,315.00
2023-05-08T10:40:23.596Z,326.25
2023-05-08T10:41:23.596Z,343.12
2023-05-08T10:42:23.539Z,354.38
2023-05-08T10:43:23.569Z,371.25
2023-05-08T10:44:23.529Z,382.50
2023-05-08T10:45:23.509Z,399.38
2023-05-08T10:46:23.502Z,421.88
2023-05-08T10:47:23.591Z,438.75
2023-05-08T10:48:23.497Z,455.62
2023-05-08T10:49:23.479Z,466.88
2023-05-08T10:50:23.455Z,466.88
2023-05-08T10:51:23.478Z,461.25
2023-05-08T10:52:23.439Z,450.00
2023-05-08T10:53:23.443Z,438.75
2023-05-08T10:54:23.401Z,433.12
2023-05-08T10:55:23.419Z,427.50
2023-05-08T10:56:25.142Z,427.50
2023-05-08T10:57:23.379Z,433.12
2023-05-08T10:58:23.371Z,444.38
2023-05-08T10:59:23.341Z,450.00
2023-05-08T11:00:23.332Z,455.62
2023-05-08T11:01:23.344Z,455.62
2023-05-08T11:02:23.346Z,455.62
2023-05-08T11:03:31.386Z,444.38
2023-05-08T11:04:24.376Z,438.75
2023-05-08T11:05:23.307Z,433.12
2023-05-08T11:06:23.256Z,427.50
2023-05-08T11:07:23.256Z,427.50
2023-05-08T11:08:23.238Z,427.50
2023-05-08T11:09:23.263Z,421.88
2023-05-08T11:10:23.925Z,416.25
2023-05-08T11:11:23.203Z,410.62
2023-05-08T11:12:24.295Z,410.62
2023-05-08T11:13:23.340Z,405.00
2023-05-08T11:14:23.160Z,393.75
2023-05-08T11:15:24.745Z,382.50
2023-05-08T11:16:23.198Z,371.25
2023-05-08T11:17:23.274Z,365.62
2023-05-08T11:18:26.318Z,365.62
2023-05-08T11:19:23.122Z,365.62
2023-05-08T11:20:23.241Z,371.25
2023-05-08T11:21:23.958Z,371.25
2023-05-08T11:22:23.133Z,376.88
2023-05-08T11:23:23.148Z,382.50
2023-05-08T11:24:24.015Z,388.12
2023-05-08T11:25:25.116Z,393.75
2023-05-08T11:26:23.057Z,399.38
2023-05-08T11:27:23.011Z,405.00
2023-05-08T11:28:23.018Z,405.00
2023-05-08T11:29:22.996Z,405.00
2023-05-08T11:30:23.024Z,405.00
2023-05-08T11:31:23.071Z,405.00
2023-05-08T11:32:22.970Z,405.00
2023-05-08T11:33:22.997Z,410.62
2023-05-08T11:34:22.946Z,416.25
2023-05-08T11:35:22.939Z,421.88
2023-05-08T11:36:22.954Z,438.75
2023-05-08T11:37:22.904Z,466.88
2023-05-08T11:38:22.938Z,495.00
2023-05-08T11:39:22.878Z,511.88
2023-05-08T11:40:22.912Z,528.75
2023-05-08T11:41:22.841Z,545.62
2023-05-08T11:42:22.844Z,556.88
2023-05-08T11:43:22.829Z,568.12
2023-05-08T11:44:22.834Z,573.75
2023-05-08T11:45:22.819Z,585.00
2023-05-08T11:46:22.875Z,590.62
2023-05-08T11:47:22.988Z,596.25
2023-05-08T11:48:22.766Z,613.12
2023-05-08T11:49:26.866Z,624.38
2023-05-08T11:50:23.795Z,641.25
2023-05-08T11:51:22.763Z,663.75
2023-05-08T11:52:22.710Z,675.00
2023-05-08T11:53:22.710Z,697.50
2023-05-08T11:54:22.699Z,720.00
2023-05-08T11:55:23.486Z,736.88
2023-05-08T11:56:22.658Z,748.12
2023-05-08T11:57:22.690Z,759.38
2023-05-08T11:58:22.680Z,770.62
2023-05-08T11:59:27.573Z,776.25
2023-05-08T12:00:23.472Z,781.88
2023-05-08T12:01:22.616Z,776.25
2023-05-08T12:02:22.761Z,770.62
2023-05-08T12:03:23.225Z,765.00
2023-05-08T12:04:22.776Z,765.00
2023-05-08T12:05:22.697Z,759.38
2023-05-08T12:06:22.555Z,742.50
2023-05-08T12:07:22.625Z,731.25
2023-05-08T12:08:22.621Z,731.25
2023-05-08T12:09:22.538Z,748.12
2023-05-08T12:10:22.513Z,765.00
2023-05-08T12:11:22.516Z,793.12
2023-05-08T12:12:24.429Z,804.38
2023-05-08T12:13:22.537Z,810.00
2023-05-08T12:14:22.500Z,810.00
2023-05-08T12:15:22.469Z,810.00
2023-05-08T12:16:22.493Z,804.38
2023-05-08T12:17:22.746Z,793.12
2023-05-08T12:18:22.747Z,781.88
2023-05-08T12:19:22.484Z,765.00
2023-05-08T12:20:22.443Z,759.38
2023-05-08T12:21:22.387Z,759.38
2023-05-08T12:22:22.401Z,759.38
2023-05-08T12:23:22.386Z,753.75
2023-05-08T12:24:22.640Z,748.12
2023-05-08T12:25:22.336Z,742.50
2023-05-08T12:26:22.360Z,742.50
2023-05-08T12:27:22.322Z,736.88
2023-05-08T12:28:22.304Z,731.25
2023-05-08T12:29:22.661Z,736.88
2023-05-08T12:30:22.851Z,742.50
2023-05-08T12:31:22.333Z,742.50
2023-05-08T12:32:22.831Z,753.75
2023-05-08T12:33:22.248Z,753.75
2023-05-08T12:34:22.235Z,781.88
2023-05-08T12:35:22.276Z,810.00
2023-05-08T12:36:22.250Z,770.62
2023-05-08T12:37:22.214Z,748.12
2023-05-08T12:38:22.197Z,742.50
2023-05-08T12:39:22.197Z,731.25
2023-05-08T12:40:22.473Z,714.38
2023-05-08T12:41:22.179Z,714.38
2023-05-08T12:42:22.147Z,731.25
2023-05-08T12:43:22.129Z,759.38
2023-05-08T12:44:22.137Z,815.62
2023-05-08T12:45:22.381Z,832.50
2023-05-08T12:46:22.123Z,804.38
2023-05-08T12:47:22.171Z,798.75
2023-05-08T12:48:22.080Z,776.25
2023-05-08T12:49:22.063Z,742.50